Time;durP1;ratioP1;P1;durP2;ratioP2;P2;SDS_P1;SDS_P2;PMS_P1;PMS_P2;Temp;Humidity;BMP_temperature;BMP_pressure;BME280_temperature;BME280_humidity;BME280_pressure;Samples;Min_cycle;Max_cycle;Signal;HPM_P1;HPM_P2
2020/12/30 00:00:20;;;;;;;42.22;25.80;;;3.50;99.90;;;;;;4927640;28;20031;-90
2020/12/30 00:02:48;;;;;;;35.88;23.38;;;3.40;99.90;;;;;;4966297;28;20039;-90
2020/12/30 00:05:14;;;;;;;38.45;24.13;;;3.30;99.90;;;;;;4940439;29;20067;-90
2020/12/30 00:07:40;;;;;;;42.85;26.33;;;3.30;99.90;;;;;;4958236;28;20562;-91
2020/12/30 00:10:11;;;;;;;38.78;26.10;;;3.30;99.90;;;;;;4952571;28;20039;-90
2020/12/30 00:12:39;;;;;;;38.47;25.50;;;3.20;99.90;;;;;;4955467;28;20097;-90
2020/12/30 00:15:13;;;;;;;48.15;29.70;;;3.10;99.90;;;;;;4973783;28;20054;-89
2020/12/30 00:17:48;;;;;;;44.70;28.08;;;3.00;99.90;;;;;;4983610;28;20051;-89
2020/12/30 00:20:18;;;;;;;46.00;27.30;;;3.00;99.90;;;;;;4978631;28;20102;-90
2020/12/30 00:22:46;;;;;;;40.25;27.17;;;3.00;99.90;;;;;;4967529;28;20032;-90
2020/12/30 00:25:14;;;;;;;43.33;27.23;;;2.90;99.90;;;;;;4994882;28;20067;-90
2020/12/30 00:27:44;;;;;;;43.17;27.77;;;2.90;99.90;;;;;;4982483;28;20040;-91
2020/12/30 00:30:12;;;;;;;44.47;27.92;;;2.80;99.90;;;;;;4987687;28;20054;-94
2020/12/30 00:32:39;;;;;;;42.45;26.83;;;2.80;99.90;;;;;;4976437;28;20082;-93
2020/12/30 00:35:09;;;;;;;44.03;28.75;;;2.70;99.90;;;;;;4982840;28;20122;-91
2020/12/30 00:37:37;;;;;;;38.50;25.38;;;2.70;99.90;;;;;;4959333;28;20039;-89
2020/12/30 00:40:05;;;;;;;40.30;25.65;;;2.70;99.90;;;;;;4958298;29;20042;-90
2020/12/30 00:42:36;;;;;;;45.38;27.80;;;2.60;99.90;;;;;;4961780;28;20400;-90
2020/12/30 00:45:04;;;;;;;41.13;25.60;;;2.60;99.90;;;;;;4961013;28;20039;-89
2020/12/30 00:47:29;;;;;;;42.28;27.80;;;2.50;99.90;;;;;;4967587;28;20054;-88
2020/12/30 00:49:55;;;;;;;50.25;29.55;;;2.60;99.90;;;;;;4957692;29;20031;-89
2020/12/30 00:52:21;;;;;;;45.30;29.00;;;2.50;99.90;;;;;;4956928;28;20054;-89
2020/12/30 00:54:47;;;;;;;44.17;27.90;;;2.40;99.90;;;;;;4973297;28;20043;-89
2020/12/30 00:57:12;;;;;;;42.28;26.73;;;2.30;99.90;;;;;;4955560;29;20876;-90
2020/12/30 00:59:41;;;;;;;44.15;27.20;;;2.30;99.90;;;;;;4955697;28;20043;-89
2020/12/30 01:02:07;;;;;;;39.80;26.02;;;2.20;99.90;;;;;;4987814;28;20144;-90
2020/12/30 01:04:33;;;;;;;39.05;24.25;;;2.20;99.90;;;;;;4992183;28;20043;-90
2020/12/30 01:06:59;;;;;;;37.40;25.58;;;2.10;99.90;;;;;;4975154;28;20031;-91
2020/12/30 01:09:29;;;;;;;41.30;25.70;;;2.10;99.90;;;;;;4982386;28;20053;-90
2020/12/30 01:12:05;;;;;;;41.67;26.20;;;2.00;99.90;;;;;;4985752;28;20043;-89
2020/12/30 01:14:34;;;;;;;46.90;27.95;;;2.00;99.90;;;;;;4976524;28;20038;-89
2020/12/30 01:17:03;;;;;;;41.33;26.90;;;2.00;99.90;;;;;;4995718;28;20399;-88
2020/12/30 01:19:33;;;;;;;39.80;24.08;;;2.00;99.90;;;;;;4996073;28;20046;-88
2020/12/30 01:21:58;;;;;;;41.22;26.48;;;1.90;99.90;;;;;;4994947;28;20506;-91
2020/12/30 01:24:26;;;;;;;43.58;27.17;;;1.90;99.90;;;;;;4996034;28;20038;-90
2020/12/30 01:26:51;;;;;;;43.20;27.20;;;1.80;99.90;;;;;;4980125;28;20071;-90
2020/12/30 01:29:20;;;;;;;43.10;27.95;;;1.90;99.90;;;;;;4995842;28;20039;-89
2020/12/30 01:31:49;;;;;;;45.35;29.08;;;1.80;99.90;;;;;;4995362;28;20030;-90
2020/12/30 01:34:18;;;;;;;43.33;27.95;;;1.80;99.90;;;;;;4995787;28;20030;-91
2020/12/30 01:36:44;;;;;;;42.03;26.67;;;1.80;99.90;;;;;;4979410;28;20070;-89
2020/12/30 01:39:11;;;;;;;46.65;29.92;;;1.90;99.90;;;;;;4988524;28;20031;-91
2020/12/30 01:41:37;;;;;;;46.47;28.80;;;1.90;99.90;;;;;;4961237;28;20039;-90
2020/12/30 01:44:05;;;;;;;48.65;29.90;;;2.00;99.90;;;;;;4975633;28;20460;-90
2020/12/30 01:46:44;;;;;;;50.60;32.95;;;2.00;99.90;;;;;;4976784;28;20050;-90
2020/12/30 01:49:22;;;;;;;53.53;30.70;;;2.10;99.90;;;;;;4973947;28;20517;-89
2020/12/30 01:51:51;;;;;;;49.42;30.70;;;2.10;99.90;;;;;;4975116;28;20130;-89
2020/12/30 01:54:22;;;;;;;50.22;30.83;;;2.20;99.90;;;;;;4976187;28;20094;-91
2020/12/30 01:56:48;;;;;;;52.83;30.40;;;2.20;99.90;;;;;;4975859;28;20071;-91
2020/12/30 01:59:22;;;;;;;46.58;28.63;;;2.20;99.90;;;;;;4977043;28;20042;-90
2020/12/30 02:01:54;;;;;;;53.60;32.65;;;2.20;99.90;;;;;;4960316;28;20051;-90
2020/12/30 02:04:47;;;;;;;56.92;33.63;;;2.20;99.90;;;;;;4976996;28;20038;-90
2020/12/30 02:07:13;;;;;;;50.23;31.73;;;2.20;99.90;;;;;;4973916;28;20038;-89
2020/12/30 02:09:41;;;;;;;52.90;32.05;;;2.20;99.90;;;;;;4977117;28;20336;-88
2020/12/30 02:12:07;;;;;;;51.15;32.20;;;2.20;99.90;;;;;;4976790;28;20050;-90
2020/12/30 02:14:33;;;;;;;50.28;30.95;;;2.20;99.90;;;;;;4976876;28;20079;-89
2020/12/30 02:17:03;;;;;;;56.72;34.28;;;2.20;99.90;;;;;;4976943;28;20039;-89
2020/12/30 02:19:33;;;;;;;60.53;34.95;;;2.20;99.90;;;;;;4976887;28;20046;-89
2020/12/30 02:22:47;;;;;;;;;;;;;;;;;;;;;
2020/12/30 02:25:13;;;;;;;50.63;30.35;;;2.20;99.90;;;;;;4978159;28;20053;-89
2020/12/30 02:27:44;;;;;;;53.45;34.20;;;2.20;99.90;;;;;;4980292;28;20062;-90
2020/12/30 02:30:12;;;;;;;47.05;30.23;;;2.20;99.90;;;;;;4980615;28;20412;-90
2020/12/30 02:32:39;;;;;;;51.15;31.08;;;2.20;99.90;;;;;;4981806;28;20043;-89
2020/12/30 02:35:08;;;;;;;48.95;30.73;;;2.20;99.90;;;;;;4977967;28;20497;-90
2020/12/30 02:37:37;;;;;;;54.78;33.40;;;2.10;99.90;;;;;;4976045;28;20061;-91
2020/12/30 02:40:11;;;;;;;54.55;33.75;;;2.10;99.90;;;;;;4977609;28;20476;-91
2020/12/30 02:42:40;;;;;;;59.20;32.90;;;2.10;99.90;;;;;;4977914;28;20045;-89
2020/12/30 02:45:11;;;;;;;51.25;31.42;;;2.10;99.90;;;;;;4977447;28;20043;-90
2020/12/30 02:47:40;;;;;;;50.92;29.77;;;2.20;99.90;;;;;;4976741;28;20034;-89
2020/12/30 02:50:10;;;;;;;45.08;28.38;;;2.20;99.90;;;;;;4977392;28;20070;-90
2020/12/30 02:52:49;;;;;;;46.10;28.08;;;2.10;99.90;;;;;;4975837;28;20038;-91
2020/12/30 02:55:15;;;;;;;44.55;27.98;;;2.10;99.90;;;;;;4976015;28;20054;-90
2020/12/30 02:57:47;;;;;;;50.10;28.98;;;2.00;99.90;;;;;;4975457;28;20051;-89
2020/12/30 03:00:13;;;;;;;48.97;30.58;;;1.90;99.90;;;;;;4976640;28;20041;-89
2020/12/30 03:02:39;;;;;;;47.78;29.30;;;1.90;99.90;;;;;;4976025;28;20133;-90
2020/12/30 03:05:05;;;;;;;44.97;28.70;;;1.90;99.90;;;;;;4959741;28;20035;-91
2020/12/30 03:07:34;;;;;;;40.05;26.05;;;1.90;99.90;;;;;;4977232;28;20030;-92
2020/12/30 03:10:00;;;;;;;46.60;27.60;;;1.90;99.90;;;;;;4976236;28;20133;-90
2020/12/30 03:12:26;;;;;;;44.85;27.02;;;2.00;99.90;;;;;;4975400;28;20070;-90
2020/12/30 03:14:52;;;;;;;43.42;26.85;;;1.90;99.90;;;;;;4976107;28;20049;-89
2020/12/30 03:17:20;;;;;;;44.38;28.10;;;1.90;99.90;;;;;;4975912;28;20093;-90
2020/12/30 03:19:46;;;;;;;41.92;25.50;;;1.90;99.90;;;;;;4975472;28;20038;-89
2020/12/30 03:22:12;;;;;;;40.03;23.23;;;1.90;99.90;;;;;;4975780;28;20109;-89
2020/12/30 03:24:37;;;;;;;41.00;24.17;;;1.80;99.90;;;;;;4975264;28;20035;-89
2020/12/30 03:27:03;;;;;;;36.45;23.10;;;1.80;99.90;;;;;;4975166;28;20031;-91
2020/12/30 03:29:30;;;;;;;41.55;23.67;;;1.90;99.90;;;;;;4975074;28;20170;-89
2020/12/30 03:31:59;;;;;;;39.05;23.50;;;1.90;99.90;;;;;;4975741;28;20069;-89
2020/12/30 03:34:26;;;;;;;36.03;23.45;;;1.90;99.90;;;;;;4975769;28;20031;-88
2020/12/30 03:36:52;;;;;;;34.92;20.92;;;1.90;99.90;;;;;;4976041;28;20039;-89
2020/12/30 03:39:20;;;;;;;41.55;24.20;;;2.00;99.90;;;;;;4976299;28;20435;-90
2020/12/30 03:41:57;;;;;;;39.50;25.20;;;2.00;99.90;;;;;;4942853;28;20051;-89
2020/12/30 03:44:23;;;;;;;37.63;23.25;;;2.00;99.90;;;;;;4975383;28;20035;-89
2020/12/30 03:46:49;;;;;;;36.28;23.63;;;2.00;99.90;;;;;;4959851;28;20117;-89
2020/12/30 03:49:15;;;;;;;37.63;22.85;;;2.00;99.90;;;;;;4975083;28;20067;-89
2020/12/30 03:51:42;;;;;;;39.40;22.80;;;2.00;99.90;;;;;;4974949;28;20125;-89
2020/12/30 03:54:08;;;;;;;42.50;26.10;;;2.10;99.90;;;;;;4976447;28;20035;-89
2020/12/30 03:56:34;;;;;;;43.85;25.63;;;2.10;99.90;;;;;;4975263;28;20118;-89
2020/12/30 03:59:00;;;;;;;42.50;25.48;;;2.20;99.90;;;;;;4975356;28;20043;-89
2020/12/30 04:01:26;;;;;;;40.33;24.42;;;2.20;99.90;;;;;;4974208;28;20051;-89
2020/12/30 04:03:54;;;;;;;47.38;27.40;;;2.20;99.90;;;;;;4975016;28;20061;-89
2020/12/30 04:06:20;;;;;;;40.58;24.85;;;2.20;99.90;;;;;;4975521;28;20068;-89
2020/12/30 04:08:47;;;;;;;37.17;24.33;;;2.30;99.90;;;;;;4974980;28;20121;-90
2020/12/30 04:11:13;;;;;;;38.75;22.80;;;2.30;99.90;;;;;;4974538;28;20039;-90
2020/12/30 04:13:39;;;;;;;33.40;20.50;;;2.30;99.90;;;;;;4975020;28;20494;-88
2020/12/30 04:16:05;;;;;;;35.53;22.08;;;2.20;99.90;;;;;;4975818;28;20035;-88
2020/12/30 04:18:31;;;;;;;39.72;24.02;;;2.20;99.90;;;;;;4974772;28;20087;-88
2020/12/30 04:20:56;;;;;;;38.95;23.60;;;2.10;99.90;;;;;;4974738;28;20507;-88
2020/12/30 04:23:22;;;;;;;39.58;23.85;;;2.10;99.90;;;;;;4974574;28;20045;-89
2020/12/30 04:25:48;;;;;;;41.47;25.50;;;2.00;99.90;;;;;;4974864;28;20043;-89
2020/12/30 04:28:19;;;;;;;40.80;24.08;;;2.00;99.90;;;;;;4974911;28;20106;-89
2020/12/30 04:30:46;;;;;;;38.67;22.85;;;2.00;99.90;;;;;;4976173;28;20383;-90
2020/12/30 04:33:12;;;;;;;39.33;23.70;;;2.00;99.90;;;;;;4974199;28;20054;-88
2020/12/30 04:35:39;;;;;;;39.17;23.25;;;2.00;99.90;;;;;;4959188;28;20039;-91
2020/12/30 04:38:09;;;;;;;43.03;25.65;;;2.00;99.90;;;;;;4973993;28;20039;-90
2020/12/30 04:40:37;;;;;;;47.92;26.67;;;2.00;99.90;;;;;;4974836;28;20035;-89
2020/12/30 04:43:05;;;;;;;44.72;25.13;;;2.00;99.90;;;;;;4974490;28;20046;-89
2020/12/30 04:45:33;;;;;;;41.80;24.10;;;2.00;99.90;;;;;;4974613;28;20424;-90
2020/12/30 04:48:04;;;;;;;39.67;24.73;;;2.00;99.90;;;;;;4974713;28;20034;-89
2020/12/30 04:50:38;;;;;;;44.95;26.60;;;2.00;99.90;;;;;;4974373;28;20472;-89
2020/12/30 04:53:11;;;;;;;50.30;29.38;;;2.10;99.90;;;;;;4974521;28;20043;-90
2020/12/30 04:55:45;;;;;;;52.30;31.00;;;2.10;99.90;;;;;;4976100;28;20058;-90
2020/12/30 04:58:14;;;;;;;49.40;28.60;;;2.20;99.90;;;;;;4975057;28;20039;-90
2020/12/30 05:00:40;;;;;;;46.00;28.23;;;2.20;99.90;;;;;;4974706;28;20035;-90
2020/12/30 05:03:21;;;;;;;51.47;30.63;;;2.30;99.90;;;;;;4974624;28;20093;-89
2020/12/30 05:05:48;;;;;;;49.20;30.23;;;2.30;99.90;;;;;;4975006;28;20483;-89
2020/12/30 05:08:15;;;;;;;55.63;30.98;;;2.30;99.90;;;;;;4973973;28;20487;-89
2020/12/30 05:10:45;;;;;;;47.75;28.30;;;2.40;99.90;;;;;;4975577;28;20027;-88
2020/12/30 05:13:12;;;;;;;43.97;26.25;;;2.40;99.90;;;;;;4975472;28;20043;-89
2020/12/30 05:15:41;;;;;;;47.67;28.58;;;2.40;99.90;;;;;;4977992;28;20039;-89
2020/12/30 05:18:08;;;;;;;47.30;27.70;;;2.40;99.90;;;;;;4996223;28;20083;-89
2020/12/30 05:20:37;;;;;;;43.83;26.00;;;2.40;99.90;;;;;;4996630;28;20035;-90
2020/12/30 05:23:08;;;;;;;51.20;29.40;;;2.50;99.90;;;;;;4997608;28;20023;-90
2020/12/30 05:25:41;;;;;;;56.50;32.83;;;2.50;99.90;;;;;;5001172;28;20018;-90
2020/12/30 05:28:15;;;;;;;54.13;32.28;;;2.50;99.90;;;;;;4996231;28;20030;-89
2020/12/30 05:30:43;;;;;;;55.90;32.28;;;2.50;99.90;;;;;;4979903;28;20035;-89
2020/12/30 05:33:09;;;;;;;57.45;34.47;;;2.60;99.90;;;;;;4978130;28;20035;-89
2020/12/30 05:35:35;;;;;;;55.28;32.97;;;2.60;99.90;;;;;;4977934;28;20030;-89
2020/12/30 05:38:02;;;;;;;64.25;38.38;;;2.60;99.90;;;;;;4976945;28;20384;-89
2020/12/30 05:40:42;;;;;;;59.38;35.60;;;2.60;99.90;;;;;;4962411;28;20143;-90
2020/12/30 05:43:13;;;;;;;55.97;33.85;;;2.70;99.90;;;;;;4976632;28;20079;-89
2020/12/30 05:45:47;;;;;;;57.70;35.17;;;2.70;99.90;;;;;;4976788;28;20031;-89
2020/12/30 05:48:13;;;;;;;52.88;31.77;;;2.80;99.90;;;;;;4977292;28;20043;-88
2020/12/30 05:51:05;;;;;;;52.38;32.22;;;2.70;99.90;;;;;;4976538;28;20065;-89
2020/12/30 05:53:31;;;;;;;58.75;34.28;;;2.70;99.90;;;;;;4974563;28;20034;-88
2020/12/30 05:56:19;;;;;;;61.72;35.65;;;2.70;99.90;;;;;;4977006;28;20053;-88
2020/12/30 05:58:48;;;;;;;59.33;36.20;;;2.70;99.90;;;;;;4978195;28;20130;-88
2020/12/30 06:01:27;;;;;;;56.88;34.33;;;2.70;99.90;;;;;;4974808;28;20164;-89
2020/12/30 06:04:18;;;;;;;54.47;33.17;;;2.60;99.90;;;;;;4941784;29;20488;-88
2020/12/30 06:06:46;;;;;;;54.83;31.63;;;2.60;99.90;;;;;;4941460;29;20066;-88
2020/12/30 06:09:23;;;;;;;51.42;31.85;;;2.60;99.90;;;;;;4941747;29;20047;-87
2020/12/30 06:11:54;;;;;;;49.40;30.70;;;2.60;99.90;;;;;;4941749;29;20039;-88
2020/12/30 06:14:24;;;;;;;53.28;32.00;;;2.60;99.90;;;;;;4941177;29;20046;-88
2020/12/30 06:16:53;;;;;;;47.80;30.63;;;2.60;99.90;;;;;;4941587;29;20027;-89
2020/12/30 06:19:29;;;;;;;56.28;34.03;;;2.60;99.90;;;;;;4939914;29;20098;-90
2020/12/30 06:21:54;;;;;;;55.80;33.10;;;2.60;99.90;;;;;;4958089;29;20499;-89
2020/12/30 06:24:21;;;;;;;48.45;32.78;;;2.60;99.90;;;;;;4957069;29;20035;-88
2020/12/30 06:26:47;;;;;;;55.10;33.80;;;2.70;99.90;;;;;;4939835;29;20434;-88
2020/12/30 06:29:17;;;;;;;57.88;35.33;;;2.60;99.90;;;;;;4926263;29;20047;-88
2020/12/30 06:31:58;;;;;;;57.70;35.80;;;2.70;99.90;;;;;;4939397;29;20387;-88
2020/12/30 06:34:27;;;;;;;52.80;33.78;;;2.70;99.90;;;;;;4940512;29;20031;-89
2020/12/30 06:37:05;;;;;;;57.45;33.17;;;2.70;99.90;;;;;;4940125;29;20066;-90
2020/12/30 06:39:38;;;;;;;49.75;31.45;;;2.70;99.90;;;;;;4921915;29;20044;-88
2020/12/30 06:42:04;;;;;;;44.45;27.90;;;2.80;99.90;;;;;;4921785;29;20063;-89
2020/12/30 06:44:43;;;;;;;51.53;31.95;;;2.80;99.90;;;;;;4937455;29;20484;-89
2020/12/30 06:47:22;;;;;;;53.88;32.38;;;2.80;99.90;;;;;;4937960;29;20071;-90
2020/12/30 06:50:18;;;;;;;51.38;30.20;;;2.80;99.90;;;;;;4924499;29;20044;-90
2020/12/30 06:52:49;;;;;;;43.58;27.52;;;2.90;99.90;;;;;;4938579;29;20032;-89
2020/12/30 06:55:16;;;;;;;49.80;29.75;;;2.90;99.90;;;;;;4937776;29;20035;-89
2020/12/30 06:57:47;;;;;;;43.75;28.48;;;2.90;99.90;;;;;;4937145;29;20205;-88
2020/12/30 07:00:32;;;;;;;47.95;29.48;;;3.00;99.90;;;;;;4937178;29;20067;-88
2020/12/30 07:03:31;;;;;;;54.92;32.55;;;2.90;99.90;;;;;;4953523;29;20080;-88
2020/12/30 07:06:27;;;;;;;51.92;29.27;;;2.90;99.90;;;;;;4937058;29;20035;-87
2020/12/30 07:08:55;;;;;;;54.50;31.55;;;2.90;99.90;;;;;;4940340;29;20046;-88
2020/12/30 07:11:52;;;;;;;51.83;31.70;;;2.90;99.90;;;;;;4956643;29;20039;-88
2020/12/30 07:14:24;;;;;;;54.20;31.10;;;2.90;99.90;;;;;;4955781;29;20063;-89
2020/12/30 07:17:03;;;;;;;52.97;31.45;;;2.90;99.90;;;;;;4956154;29;20039;-89
2020/12/30 07:19:32;;;;;;;49.53;30.27;;;3.00;99.90;;;;;;4956077;29;20039;-88
2020/12/30 07:22:03;;;;;;;53.72;31.75;;;3.00;99.90;;;;;;4940283;29;20027;-89
2020/12/30 07:24:53;;;;;;;56.75;34.10;;;3.00;99.90;;;;;;4955730;29;20074;-88
2020/12/30 07:27:28;;;;;;;52.08;31.65;;;2.90;99.90;;;;;;4956765;29;20039;-88
2020/12/30 07:40:02;;;;;;;57.83;34.72;;;3.10;99.90;;;;;;4957016;28;20039;-88
2020/12/30 07:42:28;;;;;;;51.97;31.10;;;3.10;99.90;;;;;;4957765;28;20499;-87
2020/12/30 07:44:57;;;;;;;48.30;30.52;;;3.10;99.90;;;;;;4958909;28;20058;-88
2020/12/30 07:47:30;;;;;;;48.28;30.85;;;3.20;99.90;;;;;;4958026;28;20084;-89
2020/12/30 07:50:02;;;;;;;53.08;32.90;;;3.20;99.90;;;;;;4956979;28;20096;-88
2020/12/30 07:52:28;;;;;;;55.67;34.13;;;3.20;99.90;;;;;;4958814;28;20201;-88
2020/12/30 07:54:54;;;;;;;48.40;31.77;;;3.20;99.90;;;;;;4958718;28;20038;-90
2020/12/30 07:57:26;;;;;;;52.25;31.65;;;3.30;99.90;;;;;;4958728;28;20391;-87
2020/12/30 07:59:53;;;;;;;46.75;29.50;;;3.20;99.90;;;;;;4958683;28;20066;-89
2020/12/30 08:02:20;;;;;;;42.30;27.63;;;3.20;99.90;;;;;;4930957;29;20492;-87
2020/12/30 08:04:47;;;;;;;44.85;28.60;;;3.20;99.90;;;;;;4939895;29;20476;-88
2020/12/30 08:07:16;;;;;;;44.75;28.30;;;3.20;99.90;;;;;;4939584;29;20039;-88
2020/12/30 08:10:26;;;;;;;46.72;29.08;;;3.20;99.90;;;;;;4939841;29;20130;-88
2020/12/30 08:12:54;;;;;;;39.42;26.13;;;3.20;99.90;;;;;;4939453;29;20130;-88
2020/12/30 08:15:23;;;;;;;46.05;27.15;;;3.20;99.90;;;;;;4940505;29;20032;-88
2020/12/30 08:17:52;;;;;;;46.80;29.02;;;3.20;99.90;;;;;;4939192;29;20031;-88
2020/12/30 08:20:21;;;;;;;45.47;29.33;;;3.20;99.90;;;;;;4938993;29;20043;-88
2020/12/30 08:22:47;;;;;;;44.03;28.30;;;3.30;99.90;;;;;;4923472;29;20050;-88
2020/12/30 08:25:27;;;;;;;46.30;29.35;;;3.30;99.90;;;;;;4939688;29;20114;-89
2020/12/30 08:27:56;;;;;;;47.95;29.17;;;3.30;99.90;;;;;;4939333;29;20051;-88
2020/12/30 08:30:24;;;;;;;55.22;31.48;;;3.30;99.90;;;;;;4924455;29;20071;-88
2020/12/30 08:33:08;;;;;;;47.05;29.17;;;3.30;99.90;;;;;;4940449;29;20395;-91
2020/12/30 08:36:02;;;;;;;47.65;30.17;;;3.40;99.90;;;;;;4957720;29;20089;-89
2020/12/30 08:38:41;;;;;;;;;;;3.40;99.90;;;;;;4945701;29;20067;-89
2020/12/30 08:41:51;;;;;;;47.38;29.08;;;3.40;99.90;;;;;;4948303;29;20247;-89
2020/12/30 08:44:29;;;;;;;46.33;29.60;;;3.40;99.90;;;;;;4939378;29;20040;-89
2020/12/30 08:47:01;;;;;;;52.13;31.02;;;3.40;99.90;;;;;;4939421;29;20039;-88
2020/12/30 08:52:50;;;;;;;49.13;32.53;;;3.50;99.90;;;;;;4956399;29;20110;-89
2020/12/30 08:55:36;;;;;;;55.75;32.85;;;3.50;99.90;;;;;;4939007;29;20036;-89
2020/12/30 08:58:09;;;;;;;52.85;31.70;;;3.50;99.90;;;;;;4940911;29;20457;-90
2020/12/30 09:08:00;;;;;;;56.75;36.28;;;3.60;99.90;;;;;;4958143;29;20108;-88
2020/12/30 09:10:48;;;;;;;55.70;35.97;;;3.60;99.90;;;;;;4988825;28;20043;-89
2020/12/30 09:13:43;;;;;;;59.53;37.33;;;3.60;99.90;;;;;;4980713;28;20037;-89
2020/12/30 09:16:42;;;;;;;;;;;;;;;;;;;;;
2020/12/30 09:19:18;;;;;;;55.47;34.03;;;3.70;99.90;;;;;;4998197;28;20054;-89
2020/12/30 09:21:49;;;;;;;61.80;37.83;;;3.70;99.90;;;;;;4984458;28;20030;-89
2020/12/30 09:24:16;;;;;;;57.63;35.40;;;3.70;99.90;;;;;;4997842;28;20034;-90
2020/12/30 09:26:42;;;;;;;56.50;35.58;;;3.80;99.90;;;;;;4999811;28;20126;-91
2020/12/30 09:29:25;;;;;;;61.53;37.25;;;3.80;99.90;;;;;;5003814;28;20122;-92
2020/12/30 09:32:01;;;;;;;56.42;34.63;;;3.90;99.90;;;;;;5002531;28;20030;-90
2020/12/30 09:35:28;;;;;;;;;;;;;;;;;;;;;
2020/12/30 09:38:25;;;;;;;58.05;35.63;;;3.90;99.90;;;;;;4994677;28;20054;-89
2020/12/30 09:41:02;;;;;;;51.58;32.35;;;3.90;99.90;;;;;;4981575;28;20089;-89
2020/12/30 09:43:31;;;;;;;56.42;34.85;;;4.00;99.90;;;;;;4997923;28;20035;-89
2020/12/30 09:46:02;;;;;;;54.60;34.97;;;4.00;99.90;;;;;;4980193;28;20033;-89
2020/12/30 09:48:32;;;;;;;50.45;32.97;;;4.00;99.90;;;;;;4980213;28;20050;-90
2020/12/30 09:51:06;;;;;;;53.60;31.67;;;4.10;99.90;;;;;;4997654;28;20030;-89
2020/12/30 09:53:51;;;;;;;48.85;31.67;;;4.10;99.90;;;;;;4996238;28;20035;-89
2020/12/30 09:56:44;;;;;;;51.03;32.45;;;4.10;99.90;;;;;;4980223;28;20034;-90
2020/12/30 09:59:25;;;;;;;47.38;31.42;;;4.10;99.90;;;;;;4994482;28;20129;-90
2020/12/30 10:01:58;;;;;;;48.05;31.00;;;4.20;99.90;;;;;;4987098;28;20468;-89
2020/12/30 10:04:24;;;;;;;49.05;30.58;;;4.20;99.90;;;;;;4941939;29;20122;-89
2020/12/30 10:07:10;;;;;;;46.28;31.00;;;4.20;99.90;;;;;;4941132;29;20133;-90
2020/12/30 10:09:42;;;;;;;49.95;32.47;;;4.30;99.90;;;;;;4941124;29;20035;-89
2020/12/30 10:12:09;;;;;;;51.88;32.50;;;4.30;99.90;;;;;;4941505;29;20089;-89
2020/12/30 10:14:35;;;;;;;50.50;33.13;;;4.30;99.90;;;;;;4941535;29;20138;-89
2020/12/30 10:17:14;;;;;;;53.28;34.38;;;4.40;99.90;;;;;;4941180;29;20075;-90
2020/12/30 10:19:46;;;;;;;49.95;31.63;;;4.40;99.90;;;;;;4936499;29;20047;-90
2020/12/30 10:22:34;;;;;;;47.50;31.02;;;4.50;99.90;;;;;;4941535;29;20042;-89
2020/12/30 10:25:02;;;;;;;50.60;32.97;;;4.50;99.90;;;;;;4937407;29;20031;-89
2020/12/30 10:27:50;;;;;;;;;;;;;;;;;;;;;
2020/12/30 10:30:16;;;;;;;53.53;32.33;;;4.50;99.90;;;;;;4954461;29;20031;-89
2020/12/30 10:32:47;;;;;;;50.97;32.80;;;4.50;99.90;;;;;;4941445;29;20608;-88
2020/12/30 10:35:25;;;;;;;47.00;31.58;;;4.50;99.90;;;;;;4940125;29;20063;-88
2020/12/30 10:37:52;;;;;;;48.75;30.75;;;4.50;99.90;;;;;;4940900;29;20054;-88
2020/12/30 10:40:22;;;;;;;49.90;32.22;;;4.50;99.90;;;;;;4940908;29;20035;-88
2020/12/30 10:42:49;;;;;;;48.10;31.60;;;4.50;99.90;;;;;;4940641;29;20475;-89
2020/12/30 10:45:18;;;;;;;48.70;31.67;;;4.50;99.90;;;;;;4940683;29;20098;-89
2020/12/30 10:48:06;;;;;;;45.72;30.65;;;4.50;99.90;;;;;;4941023;29;20039;-89
2020/12/30 10:51:03;;;;;;;45.22;28.75;;;4.50;99.90;;;;;;4940747;29;20058;-88
2020/12/30 10:53:31;;;;;;;46.97;31.90;;;4.50;99.90;;;;;;4932981;29;20135;-89
2020/12/30 10:56:02;;;;;;;46.80;32.65;;;4.50;99.90;;;;;;4940919;29;20027;-88
2020/12/30 10:58:51;;;;;;;48.22;32.15;;;4.50;99.90;;;;;;4955744;28;20047;-89
2020/12/30 11:01:48;;;;;;;43.05;29.20;;;4.50;99.90;;;;;;4958011;28;20031;-89
2020/12/30 11:04:24;;;;;;;48.65;31.48;;;4.60;99.90;;;;;;4959024;28;20397;-89
2020/12/30 11:06:53;;;;;;;44.58;29.60;;;4.60;99.90;;;;;;4959336;28;20089;-89
2020/12/30 11:09:31;;;;;;;42.85;28.83;;;4.60;99.90;;;;;;4959433;28;20501;-89
2020/12/30 11:12:09;;;;;;;41.92;27.88;;;4.70;99.90;;;;;;4959034;28;20054;-88
2020/12/30 11:14:55;;;;;;;49.72;32.63;;;4.80;99.90;;;;;;4976287;28;20078;-88
2020/12/30 11:17:30;;;;;;;48.65;33.08;;;4.90;99.90;;;;;;4977167;28;20038;-89
2020/12/30 11:20:01;;;;;;;53.42;34.13;;;5.10;99.90;;;;;;4959724;28;20078;-89
2020/12/30 11:22:37;;;;;;;46.60;32.25;;;5.20;99.90;;;;;;4958610;28;20487;-90
2020/12/30 11:25:09;;;;;;;51.20;32.65;;;5.30;99.90;;;;;;4976427;28;20089;-89
2020/12/30 11:28:01;;;;;;;;;;;;;;;;;;;;;
2020/12/30 11:30:32;;;;;;;39.55;27.95;;;5.20;99.90;;;;;;4976195;28;20045;-87
2020/12/30 11:33:08;;;;;;;42.72;28.77;;;5.10;99.90;;;;;;4952301;28;20062;-89
2020/12/30 11:36:18;;;;;;;39.55;28.25;;;5.10;99.90;;;;;;4972830;28;20259;-89
2020/12/30 11:38:57;;;;;;;42.60;27.85;;;5.10;99.90;;;;;;4963569;28;20380;-90
2020/12/30 11:41:47;;;;;;;42.88;28.23;;;5.10;99.90;;;;;;4959256;28;20043;-90
2020/12/30 11:47:11;;;;;;;42.28;28.80;;;5.20;99.90;;;;;;4958618;28;20039;-89
2020/12/30 11:49:39;;;;;;;38.83;25.92;;;5.30;99.90;;;;;;4938889;28;20054;-90
2020/12/30 11:52:11;;;;;;;40.95;28.58;;;5.40;99.90;;;;;;4970106;28;20038;-89
2020/12/30 11:54:58;;;;;;;42.83;30.08;;;5.50;99.90;;;;;;4973845;28;20483;-90
2020/12/30 11:57:29;;;;;;;36.33;25.80;;;5.60;99.90;;;;;;4982671;28;20066;-91
2020/12/30 12:00:12;;;;;;;;;;;;;;;;;;;;;
2020/12/30 12:02:44;;;;;;;38.22;26.35;;;5.60;99.90;;;;;;4987896;28;20057;-91
2020/12/30 12:05:13;;;;;;;38.70;24.17;;;5.60;99.90;;;;;;4952006;29;20035;-90
2020/12/30 12:07:50;;;;;;;36.05;23.10;;;5.60;99.90;;;;;;4939644;29;20479;-89
2020/12/30 12:10:16;;;;;;;30.60;20.88;;;5.50;99.90;;;;;;4945872;28;20030;-89
2020/12/30 12:13:06;;;;;;;31.25;22.00;;;5.50;99.90;;;;;;4959000;28;20061;-90
2020/12/30 12:15:38;;;;;;;28.23;20.23;;;5.60;99.90;;;;;;4951582;29;20045;-90
2020/12/30 12:18:07;;;;;;;26.83;19.15;;;5.60;99.90;;;;;;4970481;28;20044;-89
2020/12/30 12:20:43;;;;;;;27.60;18.92;;;5.80;99.90;;;;;;4923666;29;20127;-90
2020/12/30 12:23:14;;;;;;;27.38;18.00;;;5.90;99.90;;;;;;4948177;28;20400;-88
2020/12/30 12:25:43;;;;;;;24.25;17.25;;;6.00;99.90;;;;;;4957715;28;20106;-88
2020/12/30 12:28:18;;;;;;;22.38;15.88;;;6.00;99.90;;;;;;4952543;28;20027;-89
2020/12/30 12:30:49;;;;;;;21.00;15.80;;;6.00;99.90;;;;;;4942517;29;20130;-90
2020/12/30 12:33:24;;;;;;;24.88;16.60;;;6.00;99.90;;;;;;4951267;28;20090;-92
2020/12/30 12:35:52;;;;;;;23.58;15.82;;;6.00;99.90;;;;;;4950251;28;20046;-90
2020/12/30 12:38:18;;;;;;;20.98;16.40;;;6.00;99.90;;;;;;4961490;28;20043;-90
2020/12/30 12:40:44;;;;;;;23.48;16.50;;;6.00;99.90;;;;;;4962021;28;20027;-90
2020/12/30 12:43:23;;;;;;;21.67;16.63;;;6.10;99.90;;;;;;4961869;28;20073;-91
2020/12/30 12:46:03;;;;;;;;;;;;;;;;;;;;;
2020/12/30 12:48:34;;;;;;;21.02;15.75;;;6.00;99.90;;;;;;4968135;28;20030;-89
2020/12/30 12:51:04;;;;;;;20.92;16.48;;;6.10;99.90;;;;;;4946919;29;20023;-90
2020/12/30 12:53:39;;;;;;;25.27;17.80;;;6.10;99.90;;;;;;4904332;29;20043;-91
2020/12/30 12:56:28;;;;;;;26.58;18.35;;;6.00;99.90;;;;;;4942876;28;20094;-90
2020/12/30 12:59:07;;;;;;;28.95;19.23;;;6.00;99.90;;;;;;4946718;28;20051;-91
2020/12/30 13:02:08;;;;;;;27.20;19.45;;;6.00;99.90;;;;;;4961821;28;20126;-91
2020/12/30 13:05:32;;;;;;;26.33;19.92;;;6.00;99.90;;;;;;4963479;28;20121;-90
2020/12/30 13:08:29;;;;;;;30.38;21.10;;;5.90;99.90;;;;;;4924375;29;20043;-94
2020/12/30 13:11:09;;;;;;;29.95;20.23;;;5.90;99.90;;;;;;4926007;29;20024;-93
2020/12/30 13:13:44;;;;;;;27.52;19.65;;;5.90;99.90;;;;;;4936981;29;20112;-95
2020/12/30 13:16:33;;;;;;;26.20;19.25;;;5.90;99.90;;;;;;4900991;29;20048;-94
2020/12/30 13:19:11;;;;;;;27.17;20.23;;;6.00;99.90;;;;;;4924803;29;20055;-91
2020/12/30 13:21:48;;;;;;;24.58;17.63;;;5.90;99.90;;;;;;4914572;29;20043;-92
2020/12/30 13:24:15;;;;;;;25.42;16.23;;;5.90;99.90;;;;;;4942179;29;20126;-91
2020/12/30 13:27:00;;;;;;;19.00;14.95;;;5.90;99.90;;;;;;4925852;29;20058;-91
2020/12/30 13:29:36;;;;;;;22.63;14.80;;;5.80;99.90;;;;;;4966035;28;20050;-92
2020/12/30 13:32:24;;;;;;;19.40;13.95;;;5.80;99.90;;;;;;4975952;28;20034;-91
2020/12/30 13:34:51;;;;;;;20.75;14.18;;;5.80;99.90;;;;;;4960437;28;20035;-91
2020/12/30 13:37:21;;;;;;;22.27;15.27;;;5.70;99.90;;;;;;4941918;29;20039;-90
2020/12/30 13:43:27;;;;;;;;;;;;;;;;;;;;;